createdAt,value
2023-01-01T00:03:32.141Z,18.70
2023-01-01T00:08:36.348Z,18.70
2023-01-01T00:13:41.264Z,18.60
2023-01-01T00:18:46.463Z,18.60
2023-01-01T00:23:49.350Z,18.50
2023-01-01T00:28:52.374Z,18.60
2023-01-01T00:33:57.994Z,18.50
2023-01-01T00:39:02.676Z,18.50
2023-01-01T00:44:05.569Z,18.40
2023-01-01T00:49:09.711Z,18.50
2023-01-01T00:54:13.302Z,18.50
2023-01-01T00:59:16.124Z,18.50
2023-01-01T01:04:20.288Z,18.50
2023-01-01T01:09:23.185Z,18.50
2023-01-01T01:14:26.073Z,18.60
2023-01-01T01:19:30.314Z,18.50
2023-01-01T01:24:33.160Z,18.50
2023-01-01T01:29:35.990Z,18.40
2023-01-01T01:34:40.263Z,18.40
2023-01-01T01:39:51.684Z,18.30
2023-01-01T01:44:59.132Z,18.40
2023-01-01T01:50:09.900Z,18.30
2023-01-01T01:55:14.488Z,18.20
2023-01-01T02:00:17.746Z,18.20
2023-01-01T02:05:23.486Z,18.20
2023-01-01T02:10:27.257Z,18.20
2023-01-01T02:15:32.969Z,18.20
2023-01-01T02:20:44.983Z,18.10
2023-01-01T02:26:04.303Z,18.10
2023-01-01T02:31:11.185Z,18.10
2023-01-01T02:36:15.110Z,18.00
2023-01-01T02:41:24.050Z,18.00
2023-01-01T02:46:33.728Z,18.00
2023-01-01T02:51:47.961Z,18.10
2023-01-01T02:56:55.631Z,18.10
2023-01-01T03:02:05.511Z,18.00
2023-01-01T03:07:16.233Z,18.10
2023-01-01T03:12:25.212Z,18.10
2023-01-01T03:17:34.318Z,18.00
2023-01-01T03:27:45.602Z,18.00
2023-01-01T03:33:01.462Z,18.10
2023-01-01T03:38:07.944Z,18.10
2023-01-01T03:43:16.441Z,18.00
2023-01-01T03:48:20.941Z,18.00
2023-01-01T03:53:34.427Z,18.00
2023-01-01T03:58:44.520Z,17.90
2023-01-01T04:03:49.959Z,17.90
2023-01-01T04:08:56.394Z,18.00
2023-01-01T04:13:59.699Z,17.90
2023-01-01T04:19:07.023Z,18.00
2023-01-01T04:24:12.390Z,17.90
2023-01-01T04:29:15.464Z,17.90
2023-01-01T04:34:20.800Z,17.90
2023-01-01T04:39:23.726Z,17.90
2023-01-01T04:44:27.239Z,17.80
2023-01-01T04:49:31.617Z,17.90
2023-01-01T04:54:34.685Z,17.80
2023-01-01T04:59:37.531Z,17.80
2023-01-01T05:04:41.769Z,17.80
2023-01-01T05:09:44.668Z,17.90
2023-01-01T05:14:47.529Z,17.90
2023-01-01T05:19:51.747Z,17.80
2023-01-01T05:24:54.669Z,17.90
2023-01-01T05:29:58.564Z,17.80
2023-01-01T05:35:02.763Z,17.90
2023-01-01T05:40:06.627Z,17.90
2023-01-01T05:45:10.466Z,17.90
2023-01-01T05:50:14.756Z,17.90
2023-01-01T05:55:17.903Z,17.80
2023-01-01T06:00:21.213Z,17.80
2023-01-01T06:05:25.456Z,17.80
2023-01-01T06:10:28.308Z,17.80
2023-01-01T06:15:31.250Z,17.80
2023-01-01T06:20:35.472Z,17.80
2023-01-01T06:25:47.418Z,17.70
2023-01-01T06:30:50.301Z,17.70
2023-01-01T06:35:54.511Z,17.70
2023-01-01T06:40:58.303Z,17.70
2023-01-01T06:46:06.395Z,17.60
2023-01-01T06:51:12.592Z,17.70
2023-01-01T06:56:15.907Z,17.70
2023-01-01T07:01:20.634Z,17.60
2023-01-01T07:06:25.838Z,17.60
2023-01-01T07:11:29.308Z,17.70
2023-01-01T07:16:32.257Z,17.60
2023-01-01T07:21:41.980Z,17.70
2023-01-01T07:26:45.452Z,17.60
2023-01-01T07:31:48.310Z,17.60
2023-01-01T07:36:52.495Z,17.70
2023-01-01T07:41:55.413Z,17.70
2023-01-01T07:47:03.596Z,17.60
2023-01-01T07:52:07.969Z,17.50
2023-01-01T07:57:11.151Z,17.50
2023-01-01T08:02:14.491Z,17.50
2023-01-01T08:07:18.875Z,17.50
2023-01-01T08:12:21.751Z,17.50
2023-01-01T08:17:24.941Z,17.50
2023-01-01T08:22:29.169Z,17.50
2023-01-01T08:27:32.026Z,17.50
2023-01-01T08:32:34.925Z,17.50
2023-01-01T08:37:39.134Z,17.50
2023-01-01T08:42:41.996Z,17.50
2023-01-01T08:47:44.917Z,17.60
2023-01-01T08:52:49.185Z,17.70
2023-01-01T08:57:54.193Z,17.80
2023-01-01T09:02:57.133Z,17.80
2023-01-01T09:08:01.427Z,17.80
2023-01-01T09:13:04.294Z,17.80
2023-01-01T09:18:07.316Z,17.80
2023-01-01T09:23:12.565Z,18.00
2023-01-01T09:28:18.176Z,18.00
2023-01-01T09:33:24.771Z,18.00
2023-01-01T09:38:28.989Z,18.00
2023-01-01T09:43:40.111Z,18.00
2023-01-01T09:48:55.140Z,18.10
2023-01-01T09:54:05.698Z,18.20
2023-01-01T09:59:14.584Z,18.40
2023-01-01T10:04:30.466Z,18.30
2023-01-01T10:09:43.500Z,18.40
2023-01-01T10:14:50.279Z,18.50
2023-01-01T10:19:57.538Z,18.50
2023-01-01T10:25:06.812Z,18.60
2023-01-01T10:30:16.444Z,18.60
2023-01-01T10:35:28.378Z,18.70
2023-01-01T10:40:35.001Z,18.60
2023-01-01T10:45:46.726Z,18.80
2023-01-01T10:50:52.180Z,18.90
2023-01-01T10:56:03.160Z,18.90
2023-01-01T11:01:08.110Z,19.10
2023-01-01T11:06:22.250Z,19.20
2023-01-01T11:11:30.331Z,19.20
2023-01-01T11:16:34.136Z,19.20
2023-01-01T11:21:37.341Z,19.20
2023-01-01T11:26:41.658Z,19.20
2023-01-01T11:31:46.414Z,19.10
2023-01-01T11:36:49.372Z,19.20
2023-01-01T11:41:56.436Z,19.10
2023-01-01T11:46:59.583Z,19.20
2023-01-01T11:52:22.643Z,19.20
2023-01-01T11:57:27.681Z,19.30
2023-01-01T12:02:37.328Z,19.20
2023-01-01T12:07:41.454Z,19.20
2023-01-01T12:12:51.618Z,19.20
2023-01-01T12:18:02.772Z,19.40
2023-01-01T12:23:06.001Z,19.40
2023-01-01T12:28:24.691Z,19.40
2023-01-01T12:33:59.807Z,19.40
2023-01-01T12:39:46.219Z,19.50
2023-01-01T12:45:03.255Z,19.60
2023-01-01T12:50:18.427Z,19.60
2023-01-01T12:56:00.540Z,19.70
2023-01-01T13:01:11.185Z,19.70
2023-01-01T13:06:17.684Z,19.70
2023-01-01T13:11:20.887Z,19.70
2023-01-01T13:16:36.954Z,19.70
2023-01-01T13:21:39.863Z,19.70
2023-01-01T13:26:44.169Z,19.70
2023-01-01T13:32:07.487Z,19.70
2023-01-01T13:37:54.232Z,19.80
2023-01-01T13:43:07.220Z,19.80
2023-01-01T13:48:25.574Z,19.70
2023-01-01T13:53:52.044Z,19.80
2023-01-01T13:59:27.903Z,19.80
2023-01-01T14:04:38.486Z,19.80
2023-01-01T14:09:41.418Z,19.80
2023-01-01T14:14:44.305Z,19.80
2023-01-01T14:19:48.576Z,19.80
2023-01-01T14:24:51.516Z,19.80
2023-01-01T14:29:58.308Z,19.80
2023-01-01T14:35:03.709Z,19.80
2023-01-01T14:40:18.721Z,19.80
2023-01-01T14:45:29.972Z,19.80
2023-01-01T14:50:35.028Z,19.90
2023-01-01T14:55:42.467Z,19.70
2023-01-01T15:00:51.871Z,19.70
2023-01-01T15:06:02.036Z,19.70
2023-01-01T15:11:05.424Z,19.70
2023-01-01T15:16:18.934Z,19.60
2023-01-01T15:21:38.328Z,19.50
2023-01-01T15:26:44.467Z,19.50
2023-01-01T15:31:51.227Z,19.30
2023-01-01T15:36:57.720Z,19.30
2023-01-01T15:42:02.225Z,19.20
2023-01-01T15:47:13.782Z,19.20
2023-01-01T15:52:26.736Z,19.10
2023-01-01T15:57:31.283Z,18.90
2023-01-01T16:02:37.980Z,18.90
2023-01-01T16:07:42.809Z,18.90
2023-01-01T16:12:45.745Z,18.90
2023-01-01T16:17:48.712Z,18.80
2023-01-01T16:22:52.951Z,18.70
2023-01-01T16:27:55.887Z,18.70
2023-01-01T16:32:58.935Z,18.60
2023-01-01T16:38:03.537Z,18.60
2023-01-01T16:43:09.756Z,18.50
2023-01-01T16:48:12.852Z,18.60
2023-01-01T16:53:17.136Z,18.60
2023-01-01T16:58:48.644Z,18.50
2023-01-01T17:03:45.558Z,18.50
2023-01-01T17:08:51.249Z,18.60
2023-01-01T17:13:54.391Z,18.50
2023-01-01T17:19:14.972Z,18.60
2023-01-01T17:24:21.932Z,18.60
2023-01-01T17:29:25.940Z,18.60
2023-01-01T17:34:28.989Z,18.60
2023-01-01T17:39:38.419Z,18.60
2023-01-01T17:44:41.325Z,18.70
2023-01-01T17:49:44.336Z,18.80
2023-01-01T17:54:55.853Z,18.80
2023-01-01T17:59:59.692Z,18.70
2023-01-01T18:05:03.339Z,18.90
2023-01-01T18:10:23.849Z,18.80
2023-01-01T18:15:28.217Z,18.90
2023-01-01T18:20:31.156Z,18.90
2023-01-01T18:25:41.497Z,18.90
2023-01-01T18:30:44.971Z,19.00
2023-01-01T18:35:47.913Z,18.90
2023-01-01T18:41:01.960Z,19.00
2023-01-01T18:46:15.020Z,18.90
2023-01-01T18:51:23.608Z,19.00
2023-01-01T18:56:31.534Z,18.90
2023-01-01T19:01:35.479Z,18.90
2023-01-01T19:06:44.466Z,19.00
2023-01-01T19:11:49.349Z,19.00
2023-01-01T19:16:56.207Z,19.10
2023-01-01T19:22:18.189Z,19.00
2023-01-01T19:27:24.567Z,19.10
2023-01-01T19:32:27.549Z,19.10
2023-01-01T19:37:30.433Z,19.20
2023-01-01T19:42:34.811Z,19.20
2023-01-01T19:47:38.383Z,19.20
2023-01-01T19:52:41.348Z,19.20
2023-01-01T19:57:48.357Z,19.20
2023-01-01T20:03:51.558Z,19.30
2023-01-01T20:08:32.409Z,19.30
2023-01-01T20:13:37.034Z,19.30
2023-01-01T20:18:39.969Z,19.30
2023-01-01T20:23:42.975Z,19.30
2023-01-01T20:29:04.718Z,19.40
2023-01-01T20:34:07.641Z,19.40
2023-01-01T20:39:10.625Z,19.40
2023-01-01T20:44:14.899Z,19.50
2023-01-01T20:49:19.695Z,19.40
2023-01-01T20:54:24.373Z,19.50
2023-01-01T20:59:37.780Z,19.50
2023-01-01T21:04:41.347Z,19.40
2023-01-01T21:09:44.265Z,19.40
2023-01-01T21:14:48.588Z,19.40
2023-01-01T21:19:52.889Z,19.40
2023-01-01T21:25:16.884Z,19.40
2023-01-01T21:30:22.265Z,19.40
2023-01-01T21:35:36.264Z,19.40
2023-01-01T21:40:41.408Z,19.40
2023-01-01T21:45:48.254Z,19.40
2023-01-01T21:50:51.949Z,19.40
2023-01-01T21:55:56.514Z,19.40
2023-01-01T22:01:00.755Z,19.40
2023-01-01T22:06:12.742Z,19.30
2023-01-01T22:11:25.689Z,19.30
2023-01-01T22:16:31.462Z,19.30
2023-01-01T22:21:34.383Z,19.40
2023-01-01T22:26:41.305Z,19.40
2023-01-01T22:31:49.503Z,19.30
2023-01-01T22:36:52.606Z,19.30
2023-01-01T22:42:01.391Z,19.40
2023-01-01T22:47:07.385Z,19.50
2023-01-01T22:52:11.279Z,19.40
2023-01-01T22:57:14.222Z,19.60
2023-01-01T23:02:18.512Z,19.50
2023-01-01T23:07:21.489Z,19.60
2023-01-01T23:12:24.645Z,19.70
2023-01-01T23:17:28.864Z,19.70
2023-01-01T23:22:37.328Z,19.70
2023-01-01T23:27:41.354Z,19.70
2023-01-01T23:32:46.694Z,19.80
2023-01-01T23:37:49.706Z,19.80
2023-01-01T23:42:52.557Z,19.70
2023-01-01T23:47:57.188Z,19.80
2023-01-01T23:53:02.314Z,19.80
2023-01-01T23:58:05.236Z,19.90
